createdAt,value
2022-09-12T00:00:35.462Z,46.15
2022-09-12T00:01:35.478Z,43.70
2022-09-12T00:02:35.459Z,36.64
2022-09-12T00:03:35.444Z,35.20
2022-09-12T00:04:35.520Z,43.08
2022-09-12T00:05:35.428Z,42.06
2022-09-12T00:06:35.435Z,38.85
2022-09-12T00:07:35.406Z,35.64
2022-09-12T00:08:35.451Z,44.04
2022-09-12T00:09:35.427Z,50.45
2022-09-12T00:10:35.397Z,40.13
2022-09-12T00:11:35.376Z,36.47
2022-09-12T00:12:35.380Z,37.37
2022-09-12T00:13:38.392Z,45.33
2022-09-12T00:14:37.397Z,36.37
2022-09-12T00:15:35.351Z,35.79
2022-09-12T00:16:35.413Z,41.60
2022-09-12T00:17:35.349Z,34.62
2022-09-12T00:18:35.396Z,44.84
2022-09-12T00:19:35.313Z,38.62
2022-09-12T00:20:35.308Z,39.38
2022-09-12T00:21:35.300Z,40.73
2022-09-12T00:22:35.289Z,42.03
2022-09-12T00:23:35.351Z,37.81
2022-09-12T00:24:35.291Z,43.12
2022-09-12T00:25:35.291Z,47.38
2022-09-12T00:26:35.264Z,43.62
2022-09-12T00:27:35.260Z,54.17
2022-09-12T00:28:35.335Z,41.24
2022-09-12T00:29:35.233Z,35.84
2022-09-12T00:30:35.229Z,46.34
2022-09-12T00:31:35.244Z,39.36
2022-09-12T00:32:35.210Z,41.57
2022-09-12T00:33:35.256Z,52.20
2022-09-12T00:34:35.200Z,41.57
2022-09-12T00:35:35.181Z,35.56
2022-09-12T00:36:35.189Z,41.93
2022-09-12T00:37:35.167Z,36.62
2022-09-12T00:38:35.241Z,44.37
2022-09-12T00:39:35.171Z,44.25
2022-09-12T00:40:35.145Z,34.54
2022-09-12T00:41:35.134Z,34.57
2022-09-12T00:42:35.125Z,37.92
2022-09-12T00:43:35.142Z,39.37
2022-09-12T00:44:35.119Z,40.54
2022-09-12T00:45:35.171Z,41.65
2022-09-12T00:46:35.104Z,35.96
2022-09-12T00:47:35.086Z,36.82
2022-09-12T00:48:35.194Z,46.91
2022-09-12T00:49:35.076Z,38.77
2022-09-12T00:50:35.113Z,35.85
2022-09-12T00:51:35.069Z,34.78
2022-09-12T00:52:35.050Z,38.97
2022-09-12T00:53:35.082Z,34.80
2022-09-12T00:54:35.035Z,50.22
2022-09-12T00:55:35.051Z,48.21
2022-09-12T00:56:35.025Z,39.02
2022-09-12T00:57:35.021Z,42.78
2022-09-12T00:58:35.069Z,52.95
2022-09-12T00:59:34.997Z,45.86
2022-09-12T01:00:34.990Z,39.76
2022-09-12T01:01:35.096Z,36.31
2022-09-12T01:02:35.113Z,37.45
2022-09-12T01:03:34.974Z,34.03
2022-09-12T01:04:34.978Z,34.00
2022-09-12T01:05:34.969Z,38.95
2022-09-12T01:06:34.958Z,40.55
2022-09-12T01:07:39.369Z,39.47
2022-09-12T01:08:36.933Z,34.63
2022-09-12T01:09:34.961Z,37.18
2022-09-12T01:10:34.924Z,47.55
2022-09-12T01:11:34.907Z,39.92
2022-09-12T01:12:34.928Z,54.92
2022-09-12T01:13:34.886Z,45.72
2022-09-12T01:14:34.886Z,43.37
2022-09-12T01:15:34.878Z,54.98
2022-09-12T01:16:34.891Z,42.63
2022-09-12T01:17:34.902Z,38.26
2022-09-12T01:18:34.899Z,45.08
2022-09-12T01:19:34.850Z,41.13
2022-09-12T01:20:34.847Z,45.42
2022-09-12T01:21:34.854Z,44.46
2022-09-12T01:22:34.860Z,40.34
2022-09-12T01:23:34.839Z,46.08
2022-09-12T01:24:34.813Z,40.16
2022-09-12T01:25:34.798Z,37.18
2022-09-12T01:26:34.796Z,39.23
2022-09-12T01:27:34.800Z,48.39
2022-09-12T01:28:34.828Z,57.97
2022-09-12T01:29:34.772Z,38.62
2022-09-12T01:30:34.771Z,43.65
2022-09-12T01:31:34.772Z,38.02
2022-09-12T01:32:34.749Z,34.11
2022-09-12T01:33:34.763Z,42.25
2022-09-12T01:34:34.732Z,33.64
2022-09-12T01:35:34.722Z,33.91
2022-09-12T01:36:34.746Z,44.04
2022-09-12T01:37:34.714Z,37.99
2022-09-12T01:38:34.791Z,38.13
2022-09-12T01:39:34.690Z,39.95
2022-09-12T01:40:34.699Z,40.48
2022-09-12T01:41:34.680Z,45.83
2022-09-12T01:42:34.679Z,44.62
2022-09-12T01:43:34.693Z,44.79
2022-09-12T01:44:34.662Z,40.89
2022-09-12T01:45:34.672Z,39.27
2022-09-12T01:46:34.644Z,35.90
2022-09-12T01:47:34.637Z,42.65
2022-09-12T01:48:34.705Z,41.58
2022-09-12T01:49:34.613Z,35.36
2022-09-12T01:50:34.612Z,41.46
2022-09-12T01:51:34.599Z,45.42
2022-09-12T01:52:34.595Z,43.61
2022-09-12T01:53:34.626Z,40.25
2022-09-12T01:54:34.579Z,53.64
2022-09-12T01:55:34.602Z,35.88
2022-09-12T01:56:34.564Z,40.85
2022-09-12T01:57:34.557Z,41.68
2022-09-12T01:58:34.640Z,41.60
2022-09-12T01:59:34.539Z,40.93
2022-09-12T02:00:34.532Z,48.60
2022-09-12T02:01:34.573Z,46.87
2022-09-12T02:02:34.516Z,46.57
2022-09-12T02:03:34.545Z,42.61
2022-09-12T02:04:34.561Z,44.82
2022-09-12T02:05:34.494Z,41.98
2022-09-12T02:06:34.484Z,45.71
2022-09-12T02:07:34.472Z,36.54
2022-09-12T02:08:34.509Z,42.31
2022-09-12T02:09:34.458Z,42.11
2022-09-12T02:10:34.460Z,46.67
2022-09-12T02:11:34.468Z,44.56
2022-09-12T02:12:34.440Z,49.05
2022-09-12T02:13:34.458Z,46.81
2022-09-12T02:14:34.426Z,56.18
2022-09-12T02:15:34.413Z,42.12
2022-09-12T02:16:34.586Z,33.51
2022-09-12T02:17:34.404Z,38.75
2022-09-12T02:18:34.456Z,46.21
2022-09-12T02:19:34.387Z,45.62
2022-09-12T02:20:49.278Z,40.07
2022-09-12T02:21:36.363Z,46.22
2022-09-12T02:22:34.359Z,33.95
2022-09-12T02:23:34.384Z,38.28
2022-09-12T02:24:34.345Z,46.52
2022-09-12T02:25:34.341Z,45.26
2022-09-12T02:26:34.350Z,53.97
2022-09-12T02:27:34.329Z,37.21
2022-09-12T02:28:34.340Z,47.88
2022-09-12T02:29:34.328Z,48.03
2022-09-12T02:30:34.334Z,38.72
2022-09-12T02:31:34.304Z,41.26
2022-09-12T02:32:34.314Z,43.29
2022-09-12T02:33:34.304Z,39.18
2022-09-12T02:34:34.274Z,45.68
2022-09-12T02:35:34.260Z,54.47
2022-09-12T02:36:34.259Z,45.37
2022-09-12T02:37:34.253Z,35.12
2022-09-12T02:38:34.262Z,44.90
2022-09-12T02:39:34.237Z,52.72
2022-09-12T02:40:34.222Z,42.96
2022-09-12T02:41:34.209Z,49.88
2022-09-12T02:42:34.214Z,47.86
2022-09-12T02:43:34.252Z,40.23
2022-09-12T02:44:34.197Z,37.77
2022-09-12T02:45:34.276Z,42.74
2022-09-12T02:46:34.175Z,35.48
2022-09-12T02:47:34.166Z,53.60
2022-09-12T02:48:34.188Z,45.01
2022-09-12T02:49:34.147Z,43.31
2022-09-12T02:50:34.140Z,48.02
2022-09-12T02:51:34.187Z,50.40
2022-09-12T02:52:34.158Z,43.71
2022-09-12T02:53:34.173Z,55.91
2022-09-12T02:54:34.111Z,39.84
2022-09-12T02:55:34.100Z,45.21
2022-09-12T02:56:34.102Z,48.60
2022-09-12T02:57:34.081Z,49.24
2022-09-12T02:58:34.101Z,46.86
2022-09-12T02:59:34.069Z,55.84
2022-09-12T03:00:34.066Z,47.37
2022-09-12T03:01:34.130Z,50.54
2022-09-12T03:02:34.049Z,48.32
2022-09-12T03:03:34.061Z,55.42
2022-09-12T03:04:35.537Z,52.84
2022-09-12T03:05:37.581Z,48.67
2022-09-12T03:06:35.951Z,43.18
2022-09-12T03:07:42.459Z,47.59
2022-09-12T03:08:35.948Z,50.20
2022-09-12T03:09:45.496Z,43.81
2022-09-12T03:10:35.448Z,46.32
2022-09-12T03:11:34.952Z,50.20
2022-09-12T03:12:34.071Z,46.64
2022-09-12T03:13:34.975Z,49.13
2022-09-12T03:14:37.542Z,57.83
2022-09-12T03:15:37.655Z,49.77
2022-09-12T03:16:39.009Z,47.29
2022-09-12T03:17:36.466Z,53.44
2022-09-12T03:18:36.535Z,54.76
2022-09-12T03:19:36.508Z,53.80
2022-09-12T03:20:35.542Z,53.80
2022-09-12T03:21:36.468Z,49.30
2022-09-12T03:22:35.660Z,54.72
2022-09-12T03:23:37.461Z,52.65
2022-09-12T03:24:36.454Z,54.85
2022-09-12T03:25:39.451Z,49.87
2022-09-12T03:26:37.455Z,51.32
2022-09-12T03:27:38.008Z,53.59
2022-09-12T03:28:34.564Z,46.15
2022-09-12T03:29:35.610Z,51.06
2022-09-12T03:30:35.160Z,53.94
2022-09-12T03:31:36.503Z,52.41
2022-09-12T03:32:36.503Z,47.01
2022-09-12T03:33:34.974Z,54.64
2022-09-12T03:34:35.152Z,53.03
2022-09-12T03:35:36.459Z,55.69
2022-09-12T03:36:35.455Z,47.57
2022-09-12T03:37:35.509Z,50.81
2022-09-12T03:38:37.999Z,50.09
2022-09-12T03:39:33.763Z,54.13
2022-09-12T03:40:33.757Z,53.94
2022-09-12T03:41:33.766Z,51.52
2022-09-12T03:42:33.763Z,47.06
2022-09-12T03:43:33.746Z,53.53
2022-09-12T03:44:33.774Z,54.23
2022-09-12T03:45:33.754Z,45.57
2022-09-12T03:46:33.729Z,52.99
2022-09-12T03:47:33.718Z,55.54
2022-09-12T03:48:33.714Z,51.22
2022-09-12T03:49:33.733Z,53.60
2022-09-12T03:50:33.684Z,53.19
2022-09-12T03:51:33.686Z,51.45
2022-09-12T03:52:33.679Z,49.82
2022-09-12T03:53:33.662Z,53.11
2022-09-12T03:54:33.691Z,58.91
2022-09-12T03:55:33.657Z,55.67
2022-09-12T03:56:33.658Z,50.03
2022-09-12T03:57:33.628Z,49.19
2022-09-12T03:58:33.652Z,49.19
2022-09-12T03:59:33.642Z,53.19
2022-09-12T04:00:33.663Z,47.06
2022-09-12T04:01:33.619Z,50.02
2022-09-12T04:02:33.625Z,52.50
2022-09-12T04:03:33.584Z,50.01
2022-09-12T04:04:33.608Z,46.62
2022-09-12T04:05:33.565Z,48.96
2022-09-12T04:06:33.562Z,54.29
2022-09-12T04:07:33.561Z,55.20
2022-09-12T04:08:33.548Z,51.18
2022-09-12T04:09:33.571Z,54.01
2022-09-12T04:10:33.538Z,53.69
2022-09-12T04:11:33.526Z,46.42
2022-09-12T04:12:33.580Z,48.38
2022-09-12T04:13:33.517Z,56.58
2022-09-12T04:14:33.573Z,55.69
2022-09-12T04:15:33.498Z,55.10
2022-09-12T04:16:33.571Z,52.17
2022-09-12T04:17:33.485Z,55.21
2022-09-12T04:18:33.474Z,51.65
2022-09-12T04:19:33.508Z,52.89
2022-09-12T04:20:33.464Z,55.48
2022-09-12T04:21:33.457Z,56.69
2022-09-12T04:22:33.529Z,54.14
2022-09-12T04:23:33.562Z,53.08
2022-09-12T04:24:33.461Z,52.66
2022-09-12T04:25:33.423Z,55.89
2022-09-12T04:26:33.416Z,56.88
2022-09-12T04:27:33.402Z,53.21
2022-09-12T04:28:33.393Z,51.59
2022-09-12T04:29:33.411Z,55.08
2022-09-12T04:30:33.416Z,56.09
2022-09-12T04:31:33.421Z,53.28
2022-09-12T04:32:33.364Z,53.87
2022-09-12T04:33:33.352Z,54.56
2022-09-12T04:34:33.369Z,57.58
2022-09-12T04:35:33.442Z,59.29
2022-09-12T04:36:33.333Z,50.84
2022-09-12T04:37:33.325Z,53.56
2022-09-12T04:38:33.314Z,55.83
2022-09-12T04:39:33.327Z,56.69
2022-09-12T04:40:33.303Z,54.33
2022-09-12T04:41:33.293Z,51.71
2022-09-12T04:42:33.285Z,56.13
2022-09-12T04:43:33.275Z,55.61
2022-09-12T04:44:33.289Z,55.17
2022-09-12T04:45:33.277Z,56.21
2022-09-12T04:46:33.252Z,55.58
2022-09-12T04:47:33.246Z,53.88
2022-09-12T04:48:33.236Z,53.50
2022-09-12T04:49:33.264Z,57.33
2022-09-12T04:50:33.218Z,57.29
2022-09-12T04:51:33.207Z,54.84
2022-09-12T04:52:34.206Z,54.22
2022-09-12T04:53:33.196Z,56.74
2022-09-12T04:54:33.209Z,57.03
2022-09-12T04:55:33.181Z,56.54
2022-09-12T04:56:33.173Z,56.54
2022-09-12T04:57:33.168Z,55.23
2022-09-12T04:58:33.199Z,56.23
2022-09-12T04:59:33.176Z,54.50
2022-09-12T05:00:33.141Z,56.52
2022-09-12T05:01:33.188Z,51.52
2022-09-12T05:02:33.150Z,57.21
2022-09-12T05:03:34.118Z,56.23
2022-09-12T05:04:33.149Z,56.55
2022-09-12T05:05:33.112Z,51.55
2022-09-12T05:06:33.102Z,57.34
2022-09-12T05:07:33.083Z,54.03
2022-09-12T05:08:33.088Z,54.80
2022-09-12T05:09:33.157Z,55.49
2022-09-12T05:10:33.066Z,55.84
2022-09-12T05:12:02.130Z,57.75
2022-09-12T05:12:35.047Z,53.79
2022-09-12T05:13:33.047Z,55.77
2022-09-12T05:14:33.132Z,57.24
2022-09-12T05:15:33.035Z,55.90
2022-09-12T05:16:33.047Z,57.46
2022-09-12T05:17:33.009Z,57.32
2022-09-12T05:18:32.999Z,56.15
2022-09-12T05:19:33.027Z,55.05
2022-09-12T05:20:32.978Z,51.88
2022-09-12T05:21:33.978Z,53.55
2022-09-12T05:22:32.978Z,55.15
2022-09-12T05:23:32.960Z,55.60
2022-09-12T05:24:32.994Z,56.51
2022-09-12T05:25:32.960Z,55.54
2022-09-12T05:26:32.941Z,54.68
2022-09-12T05:27:32.953Z,55.74
2022-09-12T05:28:32.935Z,55.52
2022-09-12T05:29:32.945Z,55.39
2022-09-12T05:30:32.954Z,54.99
2022-09-12T05:31:32.899Z,55.36
2022-09-12T05:32:32.888Z,55.18
2022-09-12T05:33:32.894Z,48.84
2022-09-12T05:34:32.901Z,56.98
2022-09-12T05:35:32.900Z,57.86
2022-09-12T05:36:32.867Z,55.73
2022-09-12T05:37:32.858Z,55.22
2022-09-12T05:38:32.842Z,57.22
2022-09-12T05:39:32.860Z,57.31
2022-09-12T05:40:32.832Z,54.12
2022-09-12T05:41:32.824Z,54.95
2022-09-12T05:42:32.810Z,56.93
2022-09-12T05:43:32.803Z,55.59
2022-09-12T05:44:32.828Z,55.46
2022-09-12T05:45:32.855Z,56.98
2022-09-12T05:46:32.784Z,56.79
2022-09-12T05:47:32.775Z,56.12
2022-09-12T05:48:32.762Z,55.25
2022-09-12T05:49:32.818Z,57.70
2022-09-12T05:50:32.747Z,56.02
2022-09-12T05:51:32.742Z,57.03
2022-09-12T05:52:32.738Z,57.03
2022-09-12T05:53:32.760Z,52.48
2022-09-12T05:54:32.719Z,53.85
2022-09-12T05:55:32.739Z,57.36
2022-09-12T05:56:32.705Z,55.64
2022-09-12T05:57:32.715Z,53.83
2022-09-12T05:58:32.692Z,55.97
2022-09-12T05:59:32.682Z,54.69
2022-09-12T06:00:33.661Z,54.46
2022-09-12T06:01:33.708Z,54.21
2022-09-12T06:02:32.697Z,55.91
2022-09-12T06:03:32.655Z,56.36
2022-09-12T06:04:32.642Z,55.16
2022-09-12T06:05:32.665Z,53.14
2022-09-12T06:06:32.632Z,55.91
2022-09-12T06:07:32.630Z,57.82
2022-09-12T06:08:32.616Z,56.58
2022-09-12T06:09:32.630Z,55.79
2022-09-12T06:10:32.636Z,56.01
2022-09-12T06:11:32.650Z,58.09
2022-09-12T06:12:32.591Z,56.65
2022-09-12T06:13:32.577Z,60.04
2022-09-12T06:14:32.572Z,54.59
2022-09-12T06:15:32.616Z,53.34
2022-09-12T06:16:32.682Z,55.68
2022-09-12T06:17:32.565Z,55.45
2022-09-12T06:18:32.538Z,54.55
2022-09-12T06:19:32.578Z,50.41
2022-09-12T06:20:32.554Z,57.94
2022-09-12T06:21:32.517Z,57.43
2022-09-12T06:22:32.514Z,51.61
2022-09-12T06:23:32.499Z,53.66
2022-09-12T06:24:32.495Z,57.58
2022-09-12T06:25:32.520Z,57.02
2022-09-12T06:26:32.480Z,56.14
2022-09-12T06:27:32.473Z,53.57
2022-09-12T06:28:32.460Z,54.17
2022-09-12T06:29:32.453Z,50.59
2022-09-12T06:30:32.498Z,57.99
2022-09-12T06:31:32.438Z,59.70
2022-09-12T06:32:32.428Z,55.69
2022-09-12T06:33:32.422Z,53.19
2022-09-12T06:34:32.412Z,57.36
2022-09-12T06:35:32.439Z,54.60
2022-09-12T06:36:32.397Z,58.34
2022-09-12T06:37:32.387Z,57.00
2022-09-12T06:38:32.385Z,53.74
2022-09-12T06:39:32.374Z,54.44
2022-09-12T06:40:32.417Z,56.15
2022-09-12T06:41:32.379Z,56.11
2022-09-12T06:42:32.353Z,53.92
2022-09-12T06:43:32.421Z,55.24
2022-09-12T06:44:32.334Z,56.44
2022-09-12T06:45:32.356Z,56.98
2022-09-12T06:46:32.344Z,56.23
2022-09-12T06:47:32.312Z,54.77
2022-09-12T06:48:32.300Z,56.90
2022-09-12T06:49:32.299Z,51.17
2022-09-12T06:50:32.310Z,58.87
2022-09-12T06:51:32.285Z,52.04
2022-09-12T06:52:32.284Z,50.49
2022-09-12T06:53:32.263Z,58.25
2022-09-12T06:54:32.256Z,57.13
2022-09-12T06:55:32.273Z,54.30
2022-09-12T06:56:32.247Z,57.68
2022-09-12T06:57:32.237Z,55.94
2022-09-12T06:58:32.229Z,58.59
2022-09-12T06:59:32.224Z,57.68
2022-09-12T07:00:32.240Z,55.09
2022-09-12T07:01:32.259Z,53.10
2022-09-12T07:02:32.263Z,57.59
2022-09-12T07:03:32.198Z,54.75
2022-09-12T07:04:32.181Z,56.92
2022-09-12T07:05:32.225Z,56.41
2022-09-12T07:06:32.311Z,55.70
2022-09-12T07:07:32.181Z,56.72
2022-09-12T07:08:32.146Z,54.56
2022-09-12T07:09:32.139Z,55.83
2022-09-12T07:10:32.161Z,58.06
2022-09-12T07:11:32.130Z,56.79
2022-09-12T07:12:32.120Z,54.48
2022-09-12T07:13:32.132Z,54.05
2022-09-12T07:14:32.111Z,50.60
2022-09-12T07:15:32.123Z,55.34
2022-09-12T07:16:32.170Z,55.80
2022-09-12T07:17:32.081Z,58.35
2022-09-12T07:18:32.086Z,55.14
2022-09-12T07:19:32.066Z,56.53
2022-09-12T07:20:32.084Z,57.10
2022-09-12T07:21:32.048Z,53.57
2022-09-12T07:22:32.047Z,56.66
2022-09-12T07:23:32.042Z,55.13
2022-09-12T07:24:32.024Z,53.80
2022-09-12T07:25:32.044Z,57.96
2022-09-12T07:26:32.029Z,55.92
2022-09-12T07:27:32.007Z,51.44
2022-09-12T07:28:31.995Z,55.84
2022-09-12T07:29:36.861Z,56.65
2022-09-12T07:30:34.057Z,61.87
2022-09-12T07:31:32.001Z,56.01
2022-09-12T07:32:31.965Z,54.84
2022-09-12T07:33:31.957Z,58.88
2022-09-12T07:34:31.948Z,54.85
2022-09-12T07:35:31.940Z,50.16
2022-09-12T07:36:32.248Z,57.19
2022-09-12T07:37:31.916Z,56.35
2022-09-12T07:38:32.940Z,60.16
2022-09-12T07:39:31.908Z,52.83
2022-09-12T07:40:31.902Z,54.66
2022-09-12T07:41:31.919Z,57.64
2022-09-12T07:42:31.887Z,57.13
2022-09-12T07:43:31.881Z,54.61
2022-09-12T07:44:31.882Z,55.59
2022-09-12T07:45:31.878Z,56.21
2022-09-12T07:46:31.888Z,56.09
2022-09-12T07:47:31.851Z,52.92
2022-09-12T07:48:31.845Z,55.94
2022-09-12T07:49:31.837Z,56.18
2022-09-12T07:50:31.848Z,57.24
2022-09-12T07:51:31.843Z,55.07
2022-09-12T07:52:31.800Z,55.66
2022-09-12T07:53:31.800Z,53.96
2022-09-12T07:54:31.786Z,55.70
2022-09-12T07:55:31.778Z,54.69
2022-09-12T07:56:35.711Z,55.45
2022-09-12T07:57:33.763Z,53.45
2022-09-12T07:58:31.763Z,55.50
2022-09-12T07:59:51.583Z,55.15
2022-09-12T08:00:33.743Z,51.40
2022-09-12T08:01:32.220Z,56.41
2022-09-12T08:02:31.848Z,53.60
2022-09-12T08:03:31.714Z,57.55
2022-09-12T08:04:31.707Z,57.48
2022-09-12T08:05:31.699Z,53.67
2022-09-12T08:06:31.722Z,57.14
2022-09-12T08:07:31.685Z,53.46
2022-09-12T08:08:31.678Z,58.47
2022-09-12T08:09:31.669Z,55.13
2022-09-12T08:10:31.666Z,57.02
2022-09-12T08:11:31.673Z,51.42
2022-09-12T08:12:31.648Z,55.47
2022-09-12T08:13:31.636Z,55.26
2022-09-12T08:14:31.630Z,55.74
2022-09-12T08:15:31.687Z,53.55
2022-09-12T08:16:31.640Z,58.58
2022-09-12T08:17:31.608Z,56.54
2022-09-12T08:18:31.605Z,54.31
2022-09-12T08:19:31.594Z,52.83
2022-09-12T08:20:31.592Z,57.74
2022-09-12T08:21:31.608Z,54.99
2022-09-12T08:22:31.570Z,58.81
2022-09-12T08:23:31.561Z,59.77
2022-09-12T08:24:31.562Z,58.01
2022-09-12T08:25:31.539Z,56.19
2022-09-12T08:26:31.567Z,54.57
2022-09-12T08:27:31.542Z,56.11
2022-09-12T08:28:31.530Z,56.16
2022-09-12T08:29:31.511Z,58.25
2022-09-12T08:30:31.568Z,59.85
2022-09-12T08:31:31.529Z,55.32
2022-09-12T08:32:31.488Z,54.69
2022-09-12T08:33:32.119Z,56.63
2022-09-12T08:34:31.473Z,55.53
2022-09-12T08:35:32.243Z,52.53
2022-09-12T08:36:31.488Z,54.62
2022-09-12T08:37:31.451Z,56.45
2022-09-12T08:38:31.446Z,54.20
2022-09-12T08:39:31.438Z,56.39
2022-09-12T08:40:31.422Z,54.57
2022-09-12T08:41:31.447Z,56.85
2022-09-12T08:42:31.413Z,55.90
2022-09-12T08:43:31.397Z,56.84
2022-09-12T08:44:31.395Z,54.41
2022-09-12T08:45:31.411Z,56.66
2022-09-12T08:46:31.404Z,55.18
2022-09-12T08:47:31.367Z,55.93
2022-09-12T08:48:31.360Z,55.95
2022-09-12T08:49:31.364Z,55.97
2022-09-12T08:50:32.349Z,59.13
2022-09-12T08:51:31.399Z,53.74
2022-09-12T08:52:31.336Z,56.04
2022-09-12T08:53:31.328Z,54.47
2022-09-12T08:54:31.322Z,56.06
2022-09-12T08:55:31.310Z,57.51
2022-09-12T08:56:31.830Z,57.08
2022-09-12T08:57:32.291Z,55.63
2022-09-12T08:58:31.284Z,54.73
2022-09-12T08:59:31.283Z,55.77
2022-09-12T09:00:31.272Z,54.86
2022-09-12T09:01:31.335Z,55.94
2022-09-12T09:02:31.343Z,56.38
2022-09-12T09:03:31.248Z,56.03
2022-09-12T09:04:31.242Z,53.85
2022-09-12T09:05:31.237Z,56.96
2022-09-12T09:06:31.306Z,56.13
2022-09-12T09:07:31.219Z,56.18
2022-09-12T09:08:31.210Z,57.02
2022-09-12T09:09:31.227Z,53.69
2022-09-12T09:10:31.198Z,51.89
2022-09-12T09:11:31.252Z,55.68
2022-09-12T09:12:31.176Z,54.99
2022-09-12T09:13:31.169Z,58.36
2022-09-12T09:14:31.168Z,53.39
2022-09-12T09:15:31.176Z,56.41
2022-09-12T09:16:31.184Z,55.33
2022-09-12T09:17:31.146Z,54.06
2022-09-12T09:18:31.127Z,61.23
2022-09-12T09:19:32.127Z,55.25
2022-09-12T09:20:31.123Z,54.80
2022-09-12T09:21:31.142Z,56.74
2022-09-12T09:22:31.113Z,54.70
2022-09-12T09:23:31.109Z,54.85
2022-09-12T09:24:31.100Z,54.67
2022-09-12T09:25:31.083Z,55.59
2022-09-12T09:26:31.119Z,54.65
2022-09-12T09:27:40.440Z,55.38
2022-09-12T09:28:33.062Z,54.99
2022-09-12T09:29:31.051Z,56.57
2022-09-12T09:30:31.053Z,56.78
2022-09-12T09:31:31.113Z,56.84
2022-09-12T09:32:31.025Z,53.40
2022-09-12T09:33:31.017Z,55.39
2022-09-12T09:34:31.014Z,53.71
2022-09-12T09:35:34.414Z,54.15
2022-09-12T09:36:33.017Z,55.30
2022-09-12T09:37:30.983Z,56.08
2022-09-12T09:38:30.992Z,56.51
2022-09-12T09:39:30.971Z,52.71
2022-09-12T09:40:30.967Z,53.97
2022-09-12T09:41:30.995Z,57.13
2022-09-12T09:42:30.960Z,56.73
2022-09-12T09:43:30.939Z,53.97
2022-09-12T09:44:30.942Z,56.22
2022-09-12T09:45:30.945Z,57.04
2022-09-12T09:46:31.109Z,52.89
2022-09-12T09:47:30.934Z,57.34
2022-09-12T09:48:30.897Z,54.24
2022-09-12T09:49:30.898Z,57.20
2022-09-12T09:50:30.885Z,54.01
2022-09-12T09:51:30.883Z,52.29
2022-09-12T09:52:30.892Z,57.41
2022-09-12T09:53:30.860Z,50.10
2022-09-12T09:54:30.847Z,52.98
2022-09-12T09:55:31.849Z,54.21
2022-09-12T09:56:30.849Z,54.37
2022-09-12T09:57:30.860Z,56.11
2022-09-12T09:58:30.820Z,54.73
2022-09-12T09:59:30.909Z,55.04
2022-09-12T10:00:30.813Z,55.97
2022-09-12T10:01:30.867Z,53.26
2022-09-12T10:02:30.838Z,55.13
2022-09-12T10:03:30.783Z,56.22
2022-09-12T10:04:30.847Z,53.87
2022-09-12T10:05:30.777Z,53.21
2022-09-12T10:06:30.763Z,54.71
2022-09-12T10:07:30.781Z,54.23
2022-09-12T10:08:30.752Z,53.89
2022-09-12T10:09:30.811Z,54.83
2022-09-12T10:10:30.728Z,55.40
2022-09-12T10:11:30.723Z,52.53
2022-09-12T10:12:30.743Z,54.88
2022-09-12T10:13:30.721Z,55.33
2022-09-12T10:14:30.713Z,52.25
2022-09-12T10:15:30.731Z,55.49
2022-09-12T10:16:30.684Z,55.34
2022-09-12T10:17:34.373Z,59.12
2022-09-12T10:18:31.670Z,53.02
2022-09-12T10:19:30.704Z,54.06
2022-09-12T10:20:30.650Z,56.73
2022-09-12T10:21:30.642Z,60.22
2022-09-12T10:22:30.662Z,50.11
2022-09-12T10:23:30.627Z,54.12
2022-09-12T10:24:30.622Z,53.34
2022-09-12T10:25:30.615Z,57.18
2022-09-12T10:26:30.610Z,53.91
2022-09-12T10:27:30.645Z,54.58
2022-09-12T10:28:30.593Z,55.83
2022-09-12T10:29:30.591Z,56.09
2022-09-12T10:30:30.626Z,53.74
2022-09-12T10:31:30.581Z,53.25
2022-09-12T10:32:31.227Z,54.17
2022-09-12T10:33:31.561Z,56.48
2022-09-12T10:34:30.576Z,56.18
2022-09-12T10:35:30.539Z,53.00
2022-09-12T10:36:30.540Z,57.09
2022-09-12T10:37:30.560Z,58.09
2022-09-12T10:38:30.520Z,61.30
2022-09-12T10:39:30.516Z,50.40
2022-09-12T10:40:30.551Z,52.34
2022-09-12T10:41:30.501Z,53.75
2022-09-12T10:42:30.517Z,53.67
2022-09-12T10:43:30.551Z,57.25
2022-09-12T10:44:30.480Z,54.92
2022-09-12T10:45:30.483Z,52.02
2022-09-12T10:46:30.463Z,55.01
2022-09-12T10:47:30.489Z,50.60
2022-09-12T10:48:30.457Z,57.00
2022-09-12T10:49:30.443Z,55.63
2022-09-12T10:50:30.432Z,56.00
2022-09-12T10:51:30.427Z,57.30
2022-09-12T10:52:30.441Z,51.22
2022-09-12T10:53:34.335Z,52.67
2022-09-12T10:54:31.426Z,56.67
2022-09-12T10:55:30.399Z,56.31
2022-09-12T10:56:30.384Z,56.01
2022-09-12T10:57:30.377Z,52.70
2022-09-12T10:58:30.402Z,56.45
2022-09-12T10:59:30.370Z,55.54
2022-09-12T11:00:30.363Z,50.41
2022-09-12T11:01:30.406Z,54.18
2022-09-12T11:02:30.415Z,54.70
2022-09-12T11:03:30.362Z,53.55
2022-09-12T11:04:30.324Z,54.82
2022-09-12T11:05:30.323Z,54.78
2022-09-12T11:06:30.323Z,58.04
2022-09-12T11:07:30.326Z,54.42
2022-09-12T11:08:30.329Z,54.17
2022-09-12T11:09:30.288Z,55.86
2022-09-12T11:10:35.736Z,55.75
2022-09-12T11:11:32.278Z,51.63
2022-09-12T11:12:30.253Z,54.32
2022-09-12T11:13:31.292Z,53.08
2022-09-12T11:14:30.250Z,50.43
2022-09-12T11:15:30.386Z,54.02
2022-09-12T11:16:30.231Z,54.30
2022-09-12T11:17:30.225Z,51.86
2022-09-12T11:18:30.254Z,53.90
2022-09-12T11:19:30.211Z,51.44
2022-09-12T11:20:30.208Z,52.66
2022-09-12T11:21:30.210Z,52.43
2022-09-12T11:22:32.096Z,51.03
2022-09-12T11:23:31.210Z,56.07
2022-09-12T11:24:30.180Z,51.41
2022-09-12T11:25:30.191Z,53.17
2022-09-12T11:26:30.164Z,54.48
2022-09-12T11:27:30.160Z,52.28
2022-09-12T11:28:30.167Z,52.86
2022-09-12T11:29:30.138Z,50.44
2022-09-12T11:30:30.213Z,51.05
2022-09-12T11:31:30.115Z,56.37
2022-09-12T11:32:30.200Z,48.55
2022-09-12T11:33:30.151Z,53.47
2022-09-12T11:34:30.091Z,53.19
2022-09-12T11:35:30.092Z,51.89
2022-09-12T11:36:30.077Z,55.77
2022-09-12T11:37:30.081Z,55.32
2022-09-12T11:38:30.091Z,52.65
2022-09-12T11:39:30.053Z,50.71
2022-09-12T11:40:30.133Z,53.20
2022-09-12T11:41:30.041Z,53.62
2022-09-12T11:42:30.038Z,54.32
2022-09-12T11:43:30.047Z,53.77
2022-09-12T11:44:30.014Z,55.92
2022-09-12T11:45:30.005Z,56.39
2022-09-12T11:46:30.001Z,53.94
2022-09-12T11:47:29.999Z,52.63
2022-09-12T11:48:30.004Z,52.35
2022-09-12T11:49:34.785Z,51.87
2022-09-12T11:50:30.964Z,52.72
2022-09-12T11:51:29.961Z,53.89
2022-09-12T11:52:29.947Z,51.21
2022-09-12T11:53:29.973Z,50.98
2022-09-12T11:54:29.940Z,50.54
2022-09-12T11:55:29.988Z,52.46
2022-09-12T11:56:29.936Z,57.33
2022-09-12T11:57:29.914Z,54.29
2022-09-12T11:58:29.931Z,52.95
2022-09-12T11:59:29.935Z,53.68
2022-09-12T12:00:29.886Z,53.64
2022-09-12T12:01:29.882Z,52.69
2022-09-12T12:02:29.954Z,50.72
2022-09-12T12:03:29.969Z,49.41
2022-09-12T12:04:29.873Z,51.53
2022-09-12T12:05:29.845Z,53.71
2022-09-12T12:06:29.838Z,54.88
2022-09-12T12:07:29.828Z,51.51
2022-09-12T12:08:29.864Z,55.36
2022-09-12T12:09:29.818Z,53.66
2022-09-12T12:10:29.826Z,53.87
2022-09-12T12:11:29.797Z,54.66
2022-09-12T12:12:29.808Z,54.20
2022-09-12T12:13:29.808Z,54.07
2022-09-12T12:14:29.778Z,51.37
2022-09-12T12:15:29.794Z,54.04
2022-09-12T12:16:29.784Z,54.60
2022-09-12T12:17:29.764Z,53.96
2022-09-12T12:18:29.780Z,55.09
2022-09-12T12:19:29.739Z,53.96
2022-09-12T12:20:29.733Z,51.72
2022-09-12T12:21:29.723Z,54.96
2022-09-12T12:22:29.712Z,55.32
2022-09-12T12:23:29.712Z,52.60
2022-09-12T12:24:29.726Z,56.18
2022-09-12T12:25:30.131Z,48.90
2022-09-12T12:26:30.701Z,52.36
2022-09-12T12:27:29.674Z,51.94
2022-09-12T12:28:29.705Z,53.17
2022-09-12T12:29:29.658Z,50.72
2022-09-12T12:30:29.657Z,55.73
2022-09-12T12:31:29.727Z,54.01
2022-09-12T12:32:29.639Z,54.09
2022-09-12T12:33:29.640Z,52.38
2022-09-12T12:34:29.655Z,54.67
2022-09-12T12:35:29.617Z,53.18
2022-09-12T12:36:29.609Z,55.13
2022-09-12T12:37:29.658Z,58.94
2022-09-12T12:38:29.600Z,51.62
2022-09-12T12:39:29.616Z,54.32
2022-09-12T12:40:29.592Z,56.04
2022-09-12T12:41:29.588Z,55.28
2022-09-12T12:42:29.562Z,54.80
2022-09-12T12:43:29.556Z,54.73
2022-09-12T12:44:29.577Z,54.14
2022-09-12T12:45:29.547Z,53.87
2022-09-12T12:46:29.612Z,55.80
2022-09-12T12:47:29.520Z,53.10
2022-09-12T12:48:29.542Z,59.38
2022-09-12T12:49:29.515Z,54.59
2022-09-12T12:50:29.502Z,54.09
2022-09-12T12:51:29.490Z,53.40
2022-09-12T12:52:29.487Z,54.06